KCEC

Jack Mc Namara Field Airport

Crescent City, California, USA
METAR KCEC 220956Z AUTO 06003KT 10SM OVC009 11/10 A2991 RMK AO2 CIG 006V010 SLP130 T01110100
Observed Flight Rules
May-22 @ 09:56 UTC (16 minutes ago) Instrument Flight Rules
Wind Visibility Clouds
60° at 3 knots 10 miles
  • Overcast at 900' AGL
Temperatures Readings
Current 11°C / 52°F
Dewpoint 10°C / 50°F
Humidity 94%
Altimeter 29.91" Hg
Pressure 1013 hPa
Elevation 17
METAR KCEC 220956Z AUTO 06003KT 10SM OVC009 11/10 A2991 RMK AO2 CIG 006V010 SLP130 T01110100
Observed Flight Rules
May-22 @ 09:56 UTC
(16 minutes ago)
IFR
Wind Visibility
60° at 3 knots 10 miles
Clouds
  • Overcast at 900' AGL
Temperature Dewpoint
11°C / 52°F 10°C / 50°F
Humidity Altimeter Pressure
94% 29.91" Hg 1013 hPa